Time;durP1;ratioP1;P1;durP2;ratioP2;P2;SDS_P1;SDS_P2;PMS_P1;PMS_P2;Temp;Humidity;BMP_temperature;BMP_pressure;BME280_temperature;BME280_humidity;BME280_pressure;Samples;Min_cycle;Max_cycle;Signal;HPM_P1;HPM_P2
2023/06/13 00:00:44;;;;;;;12.63;6.05;;;;;;;22.27;65.34;101348.88;5084303;28;20048;-47
2023/06/13 00:03:11;;;;;;;11.00;5.73;;;;;;;22.23;65.13;101342.25;5083837;28;20028;-49
2023/06/13 00:05:37;;;;;;;11.10;5.50;;;;;;;22.16;65.41;101357.97;5072414;28;20028;-46
2023/06/13 00:08:03;;;;;;;9.45;5.32;;;;;;;22.10;64.81;101351.56;5071379;28;20028;-48
2023/06/13 00:10:28;;;;;;;8.05;5.45;;;;;;;22.07;65.22;101354.00;5069700;28;20032;-47
2023/06/13 00:12:53;;;;;;;7.18;5.30;;;;;;;22.01;65.63;101354.94;5077058;28;20116;-46
2023/06/13 00:15:19;;;;;;;7.57;5.55;;;;;;;21.95;65.92;101353.22;5073364;28;20111;-46
2023/06/13 00:17:48;;;;;;;9.25;5.22;;;;;;;21.88;65.88;101354.19;5072789;28;20056;-44
2023/06/13 00:20:13;;;;;;;8.57;6.05;;;;;;;21.85;66.05;101351.09;5078034;28;20029;-44
2023/06/13 00:22:38;;;;;;;8.65;5.82;;;;;;;21.79;66.50;101347.44;5070746;28;20070;-45
2023/06/13 00:25:04;;;;;;;8.35;6.00;;;;;;;21.77;66.71;101349.56;5070044;28;20039;-46
2023/06/13 00:27:31;;;;;;;9.60;5.90;;;;;;;21.69;66.69;101348.06;5078542;28;20064;-44
2023/06/13 00:29:57;;;;;;;15.20;5.95;;;;;;;21.60;67.30;101346.78;5071918;28;20040;-44
2023/06/13 00:32:22;;;;;;;10.70;6.10;;;;;;;21.57;66.53;101347.28;5082025;28;20386;-47
2023/06/13 00:34:47;;;;;;;7.78;5.07;;;;;;;21.54;66.46;101342.28;5070844;28;20395;-45
2023/06/13 00:37:14;;;;;;;8.93;5.75;;;;;;;21.49;66.56;101350.41;5070564;28;20024;-44
2023/06/13 00:39:40;;;;;;;7.60;5.35;;;;;;;21.43;66.40;101345.88;5070679;28;20094;-45
2023/06/13 00:42:06;;;;;;;10.05;5.70;;;;;;;21.40;66.38;101343.63;5071229;28;20032;-46
2023/06/13 00:44:32;;;;;;;9.57;5.38;;;;;;;21.37;66.55;101344.09;5082801;28;20363;-47
2023/06/13 00:46:58;;;;;;;7.32;5.25;;;;;;;21.33;66.81;101342.88;5091598;28;20051;-48
2023/06/13 00:49:25;;;;;;;8.38;5.70;;;;;;;21.28;67.24;101340.91;5089558;28;20066;-46
2023/06/13 00:51:50;;;;;;;7.55;5.45;;;;;;;21.23;67.15;101347.09;5072974;28;20117;-46
2023/06/13 00:54:16;;;;;;;8.27;5.45;;;;;;;21.15;67.39;101336.50;5078678;28;20482;-48
2023/06/13 00:56:44;;;;;;;7.53;5.50;;;;;;;21.08;67.19;101333.06;5089795;28;20020;-45
2023/06/13 00:59:10;;;;;;;11.80;5.93;;;;;;;21.03;67.13;101335.69;5089169;28;20024;-44
2023/06/13 01:01:36;;;;;;;7.38;5.47;;;;;;;20.97;67.40;101336.66;5079547;28;20025;-45
2023/06/13 01:04:02;;;;;;;11.00;5.43;;;;;;;20.95;67.39;101327.84;5076637;28;20036;-46
2023/06/13 01:06:28;;;;;;;10.75;5.70;;;;;;;20.90;67.57;101331.28;5069111;28;20056;-45
2023/06/13 01:09:00;;;;;;;8.80;4.95;;;;;;;20.82;67.79;101332.47;5070248;28;20036;-45
2023/06/13 01:11:47;;;;;;;11.82;5.85;;;;;;;20.79;67.35;101330.22;5083792;28;20497;-47
2023/06/13 01:14:20;;;;;;;7.35;5.38;;;;;;;20.73;67.86;101331.19;5080986;28;20387;-47
2023/06/13 01:16:49;;;;;;;9.38;5.18;;;;;;;20.71;68.45;101324.28;5070234;28;20032;-49
2023/06/13 01:19:24;;;;;;;11.35;5.72;;;;;;;20.65;68.45;101323.34;5069639;28;20271;-49
2023/06/13 01:21:50;;;;;;;7.72;5.53;;;;;;;20.63;68.38;101324.63;5069193;28;20024;-50
2023/06/13 01:24:27;;;;;;;14.02;5.15;;;;;;;20.59;68.45;101330.59;5086642;28;20031;-46
2023/06/13 01:26:56;;;;;;;10.45;6.28;;;;;;;20.56;68.04;101325.59;5082359;28;20051;-45
2023/06/13 01:29:23;;;;;;;8.68;5.25;;;;;;;20.54;68.26;101326.91;5083212;28;20115;-45
2023/06/13 01:31:54;;;;;;;8.80;5.50;;;;;;;20.55;68.08;101336.75;5088738;28;20039;-48
2023/06/13 01:34:19;;;;;;;8.00;5.22;;;;;;;20.49;68.23;101324.00;5069548;28;20437;-44
2023/06/13 01:36:46;;;;;;;9.20;5.97;;;;;;;20.42;68.02;101323.28;5069857;28;20067;-46
2023/06/13 01:39:11;;;;;;;12.85;5.53;;;;;;;20.37;68.27;101316.59;5075053;28;20036;-45
2023/06/13 01:41:36;;;;;;;9.50;5.20;;;;;;;20.36;67.90;101322.31;5077901;28;20032;-45
2023/06/13 01:44:04;;;;;;;8.20;5.15;;;;;;;20.34;67.34;101319.81;5087256;28;20111;-45
2023/06/13 01:46:31;;;;;;;9.65;5.75;;;;;;;20.31;67.58;101325.75;5077924;28;20089;-46
2023/06/13 01:49:17;;;;;;;12.60;5.55;;;;;;;20.26;67.92;101320.16;5094778;28;20435;-46
2023/06/13 01:51:55;;;;;;;11.70;5.68;;;;;;;20.22;67.89;101316.25;5088434;28;20016;-45
2023/06/13 01:54:22;;;;;;;10.82;5.53;;;;;;;20.20;68.22;101315.63;5081819;28;20078;-49
2023/06/13 01:56:50;;;;;;;10.60;5.18;;;;;;;20.14;67.94;101316.56;5085179;28;20015;-45
2023/06/13 01:59:19;;;;;;;10.57;5.65;;;;;;;20.10;68.64;101310.75;5077358;28;20412;-49
2023/06/13 02:01:47;;;;;;;8.40;5.78;;;;;;;20.07;68.54;101311.22;5072212;28;20035;-45
2023/06/13 02:04:13;;;;;;;14.20;5.38;;;;;;;20.07;68.92;101310.38;5076325;28;20367;-45
2023/06/13 02:06:38;;;;;;;8.82;5.38;;;;;;;20.01;68.44;101316.75;5071593;28;20063;-48
2023/06/13 02:09:04;;;;;;;8.25;5.35;;;;;;;19.97;68.90;101310.13;5076026;28;20055;-48
2023/06/13 02:11:30;;;;;;;13.35;5.97;;;;;;;19.92;69.06;101308.91;5084237;28;20480;-47
2023/06/13 02:13:55;;;;;;;11.80;5.03;;;;;;;19.86;69.11;101309.00;5081752;28;20020;-45
2023/06/13 02:16:25;;;;;;;13.68;5.28;;;;;;;19.83;69.39;101314.94;5091512;28;20024;-46
2023/06/13 02:18:51;;;;;;;10.32;5.63;;;;;;;19.83;69.02;101304.84;5088686;28;20123;-46
2023/06/13 02:21:17;;;;;;;16.10;5.75;;;;;;;19.79;69.56;101317.28;5087236;28;20454;-46
2023/06/13 02:23:42;;;;;;;11.02;5.75;;;;;;;19.77;69.29;101308.47;5073782;28;20012;-48
2023/06/13 02:26:07;;;;;;;16.58;5.82;;;;;;;19.73;69.61;101310.84;5076642;28;20021;-45
2023/06/13 02:28:34;;;;;;;12.13;5.80;;;;;;;19.70;69.84;101308.59;5071633;28;20028;-46
2023/06/13 02:31:00;;;;;;;11.38;5.50;;;;;;;19.68;70.24;101304.44;5080015;28;20023;-44
2023/06/13 02:33:25;;;;;;;7.97;5.40;;;;;;;19.67;70.53;101305.50;5093116;28;20435;-45
2023/06/13 02:35:51;;;;;;;8.57;5.43;;;;;;;19.63;71.19;101312.44;5056050;28;20055;-47
2023/06/13 02:38:16;;;;;;;11.90;5.40;;;;;;;19.60;71.32;101310.19;5073052;28;20021;-46
2023/06/13 02:40:43;;;;;;;11.70;5.90;;;;;;;19.56;72.06;101309.78;5083304;28;20071;-45
2023/06/13 02:43:08;;;;;;;8.55;5.60;;;;;;;19.49;72.32;101309.91;5072990;28;20371;-46
2023/06/13 02:45:34;;;;;;;11.80;5.35;;;;;;;19.47;72.91;101316.66;5072654;28;20025;-47
2023/06/13 02:48:00;;;;;;;15.30;5.97;;;;;;;19.41;73.40;101321.13;5077095;28;20517;-45
2023/06/13 02:50:25;;;;;;;15.18;5.65;;;;;;;19.34;73.63;101317.63;5088423;28;20032;-44
2023/06/13 02:52:50;;;;;;;9.85;6.00;;;;;;;19.30;74.55;101321.91;5091565;28;20052;-47
2023/06/13 02:55:17;;;;;;;7.68;5.32;;;;;;;19.25;74.61;101319.03;5085044;28;20024;-47
2023/06/13 02:57:43;;;;;;;9.93;6.35;;;;;;;19.24;75.08;101320.06;5087270;28;20035;-48
2023/06/13 03:00:11;;;;;;;13.55;5.95;;;;;;;19.20;74.92;101321.59;5082047;28;20044;-48
2023/06/13 03:02:37;;;;;;;9.65;5.97;;;;;;;19.14;75.74;101319.75;5060101;28;20031;-45
2023/06/13 03:05:11;;;;;;;11.63;6.07;;;;;;;19.12;75.92;101316.44;5077725;28;20021;-48
2023/06/13 03:07:42;;;;;;;12.05;6.00;;;;;;;19.08;76.20;101321.50;5073661;28;20035;-49
2023/06/13 03:10:08;;;;;;;9.77;5.85;;;;;;;18.98;76.74;101319.28;5077637;28;20387;-49
2023/06/13 03:12:34;;;;;;;9.43;5.63;;;;;;;18.93;77.61;101327.34;5084897;28;20043;-47
2023/06/13 03:15:01;;;;;;;13.43;5.63;;;;;;;18.90;77.82;101327.78;5071989;28;20028;-45
2023/06/13 03:17:27;;;;;;;12.93;6.80;;;;;;;18.86;77.93;101327.41;5071825;28;20614;-46
2023/06/13 03:19:53;;;;;;;10.40;6.00;;;;;;;18.84;78.04;101326.78;5082802;28;20036;-46
2023/06/13 03:22:18;;;;;;;12.18;5.78;;;;;;;18.83;78.00;101322.41;5086816;28;20316;-46
2023/06/13 03:24:45;;;;;;;13.38;6.07;;;;;;;18.82;77.75;101336.25;5082462;28;20532;-46
2023/06/13 03:27:14;;;;;;;14.60;6.60;;;;;;;18.76;78.30;101324.34;5081525;28;20043;-47
2023/06/13 03:29:41;;;;;;;17.75;6.10;;;;;;;18.74;78.41;101317.41;5076459;28;20067;-46
2023/06/13 03:32:10;;;;;;;13.07;6.35;;;;;;;18.74;78.30;101328.31;5082648;28;20493;-48
2023/06/13 03:34:39;;;;;;;14.65;6.10;;;;;;;18.71;78.43;101329.59;5072131;28;20033;-45
2023/06/13 03:37:08;;;;;;;10.88;6.35;;;;;;;18.70;78.58;101325.22;5079705;28;20034;-47
2023/06/13 03:39:34;;;;;;;10.05;6.20;;;;;;;18.72;78.48;101323.13;5089576;28;20101;-45
2023/06/13 03:42:00;;;;;;;13.45;6.00;;;;;;;18.68;78.95;101318.31;5087810;28;20040;-48
2023/06/13 03:44:26;;;;;;;12.30;6.50;;;;;;;18.67;78.66;101316.63;5088368;28;20039;-48
2023/06/13 03:46:52;;;;;;;10.90;6.03;;;;;;;18.67;78.08;101316.63;5071669;28;20092;-46
2023/06/13 03:49:21;;;;;;;14.95;6.15;;;;;;;18.64;79.10;101318.78;5089690;28;20044;-50
2023/06/13 03:51:46;;;;;;;21.85;6.40;;;;;;;18.65;79.03;101316.88;5083720;28;20025;-45
2023/06/13 03:54:11;;;;;;;10.23;5.80;;;;;;;18.62;78.89;101315.44;5077671;28;20385;-45
2023/06/13 03:56:37;;;;;;;12.85;6.45;;;;;;;18.61;78.99;101321.94;5085778;28;20032;-47
2023/06/13 03:59:02;;;;;;;10.00;5.85;;;;;;;18.56;79.79;101321.78;5086435;28;20386;-47
2023/06/13 04:01:28;;;;;;;12.45;6.45;;;;;;;18.56;79.25;101316.34;5076410;28;20044;-47
2023/06/13 04:03:54;;;;;;;13.40;6.30;;;;;;;18.51;79.73;101324.34;5075446;28;20046;-45
2023/06/13 04:06:19;;;;;;;12.77;6.65;;;;;;;18.55;79.93;101322.84;5078275;28;20039;-44
2023/06/13 04:08:45;;;;;;;14.98;6.07;;;;;;;18.53;79.88;101335.84;5069786;28;20438;-44
2023/06/13 04:11:10;;;;;;;12.25;6.85;;;;;;;18.56;79.89;101332.69;5083927;28;20093;-48
2023/06/13 04:13:35;;;;;;;14.00;6.30;;;;;;;18.57;80.27;101336.25;5084344;28;20576;-45
2023/06/13 04:16:01;;;;;;;16.75;6.88;;;;;;;18.54;80.37;101333.97;5085723;28;20024;-48
2023/06/13 04:18:26;;;;;;;16.15;7.00;;;;;;;18.53;80.97;101333.13;5076214;28;20089;-48
2023/06/13 04:20:52;;;;;;;13.05;6.70;;;;;;;18.55;81.51;101339.19;5087901;28;20027;-48
2023/06/13 04:23:18;;;;;;;10.95;6.38;;;;;;;18.58;80.96;101341.47;5075354;28;20036;-48
2023/06/13 04:25:44;;;;;;;15.35;6.40;;;;;;;18.62;81.46;101333.69;5076990;28;20031;-45
2023/06/13 04:28:13;;;;;;;13.35;6.57;;;;;;;18.67;81.28;101341.19;5085920;28;20350;-46
2023/06/13 04:30:40;;;;;;;19.65;6.85;;;;;;;18.61;81.17;101334.72;5086677;28;20028;-47
2023/06/13 04:33:14;;;;;;;14.13;7.03;;;;;;;18.62;81.51;101331.78;5077143;28;20092;-46
2023/06/13 04:35:44;;;;;;;14.38;7.20;;;;;;;18.63;81.96;101336.19;5070904;28;20028;-46
2023/06/13 04:38:14;;;;;;;13.82;6.93;;;;;;;18.69;82.19;101341.78;5081384;28;20028;-45
2023/06/13 04:40:39;;;;;;;10.60;6.25;;;;;;;18.69;81.82;101342.63;5078562;28;20787;-45
2023/06/13 04:43:05;;;;;;;11.10;6.20;;;;;;;18.72;81.61;101347.66;5076658;28;20437;-51
2023/06/13 04:45:33;;;;;;;14.15;7.13;;;;;;;18.75;81.18;101335.50;5073647;28;20047;-46
2023/06/13 04:48:01;;;;;;;11.50;7.05;;;;;;;18.75;81.81;101341.78;5089324;28;20040;-46
2023/06/13 04:50:27;;;;;;;16.25;6.63;;;;;;;18.81;81.48;101340.03;5075582;28;20032;-50
2023/06/13 04:52:53;;;;;;;14.23;6.47;;;;;;;18.81;81.20;101340.88;5067948;28;20109;-47
2023/06/13 04:55:21;;;;;;;14.48;6.78;;;;;;;18.84;80.93;101345.03;5080294;28;20496;-46
2023/06/13 04:57:49;;;;;;;13.75;7.00;;;;;;;18.88;81.51;101340.81;5070703;28;20036;-49
2023/06/13 05:00:15;;;;;;;15.45;6.90;;;;;;;18.92;81.11;101347.47;5070819;28;20144;-47
2023/06/13 05:02:41;;;;;;;13.60;6.90;;;;;;;18.99;80.72;101353.72;5075976;28;20024;-45
2023/06/13 05:05:08;;;;;;;13.65;7.20;;;;;;;18.97;80.91;101360.44;5086169;28;20111;-44
2023/06/13 05:07:34;;;;;;;13.02;7.07;;;;;;;18.99;81.36;101356.44;5090941;28;20036;-48
2023/06/13 05:10:02;;;;;;;12.50;7.50;;;;;;;19.07;80.64;101358.88;5089859;28;20037;-46
2023/06/13 05:12:28;;;;;;;13.48;7.25;;;;;;;19.13;80.79;101353.56;5069720;28;20031;-49
2023/06/13 05:14:54;;;;;;;11.65;7.35;;;;;;;19.12;80.25;101362.84;5076736;28;20025;-46
2023/06/13 05:17:21;;;;;;;11.52;7.18;;;;;;;19.12;80.63;101363.66;5081431;28;20028;-47
2023/06/13 05:19:47;;;;;;;12.65;7.32;;;;;;;19.13;80.77;101375.41;5088946;28;20020;-46
2023/06/13 05:22:12;;;;;;;14.38;7.72;;;;;;;19.15;80.71;101360.47;5089501;28;20020;-46
2023/06/13 05:24:38;;;;;;;12.82;7.10;;;;;;;19.21;81.09;101370.47;5084312;28;20024;-47
2023/06/13 05:27:03;;;;;;;15.25;7.10;;;;;;;19.30;81.18;101379.22;5072894;28;20033;-47
2023/06/13 05:29:29;;;;;;;13.70;7.78;;;;;;;19.41;80.93;101380.34;5079098;28;20433;-49
2023/06/13 05:31:55;;;;;;;18.85;7.82;;;;;;;19.44;81.02;101377.16;5082403;28;20037;-47
2023/06/13 05:34:21;;;;;;;15.38;7.40;;;;;;;19.54;80.00;101380.19;5075420;28;20024;-46
2023/06/13 05:36:47;;;;;;;18.10;7.50;;;;;;;19.54;79.53;101377.47;5073704;28;20036;-46
2023/06/13 05:39:12;;;;;;;19.77;8.30;;;;;;;19.56;80.36;101383.50;5081757;28;20039;-45
2023/06/13 05:41:39;;;;;;;19.25;8.63;;;;;;;19.65;78.84;101381.31;5088628;28;20081;-45
2023/06/13 05:44:05;;;;;;;14.07;8.10;;;;;;;19.67;79.07;101387.44;5089017;28;20043;-48
2023/06/13 05:46:31;;;;;;;25.95;7.43;;;;;;;19.68;79.41;101386.34;5072249;28;20044;-45
2023/06/13 05:48:57;;;;;;;13.07;7.22;;;;;;;19.72;80.21;101380.22;5070728;28;20086;-45
2023/06/13 05:51:22;;;;;;;14.50;7.38;;;;;;;19.76;78.63;101388.75;5068627;28;20025;-45
2023/06/13 05:53:47;;;;;;;25.08;8.10;;;;;;;19.81;79.54;101386.19;5069420;28;20142;-47
2023/06/13 05:56:14;;;;;;;14.35;8.20;;;;;;;19.91;78.46;101386.47;5071387;28;20119;-46
2023/06/13 05:58:39;;;;;;;16.45;8.43;;;;;;;20.03;78.47;101391.97;5090301;28;20020;-48
2023/06/13 06:01:05;;;;;;;14.00;8.07;;;;;;;20.07;77.30;101389.63;5088855;28;20055;-46
2023/06/13 06:03:31;;;;;;;16.10;7.40;;;;;;;20.11;75.83;101390.81;5088988;28;20020;-45
2023/06/13 06:05:57;;;;;;;13.70;8.10;;;;;;;20.15;76.97;101394.75;5088148;28;20032;-46
2023/06/13 06:08:23;;;;;;;13.45;7.75;;;;;;;20.29;77.29;101390.75;5089691;28;20043;-45
2023/06/13 06:10:48;;;;;;;17.88;8.10;;;;;;;20.43;75.67;101393.28;5083506;28;20025;-45
2023/06/13 06:13:15;;;;;;;13.93;7.78;;;;;;;20.54;76.47;101398.00;5070264;28;20032;-46
2023/06/13 06:15:40;;;;;;;17.83;8.10;;;;;;;20.70;75.67;101396.47;5070698;28;20082;-46
2023/06/13 06:18:06;;;;;;;13.95;8.05;;;;;;;20.76;75.70;101401.81;5089679;28;20035;-47
2023/06/13 06:20:32;;;;;;;22.02;8.43;;;;;;;20.86;74.90;101403.16;5083259;28;20039;-45
2023/06/13 06:22:57;;;;;;;26.35;9.27;;;;;;;20.99;73.25;101405.66;5068876;28;20099;-45
2023/06/13 06:25:22;;;;;;;15.98;8.40;;;;;;;20.98;72.84;101403.97;5079240;28;20082;-46
2023/06/13 06:27:49;;;;;;;23.63;8.70;;;;;;;21.10;73.34;101406.72;5091725;28;20039;-45
2023/06/13 06:30:16;;;;;;;17.33;7.85;;;;;;;21.30;73.10;101401.72;5092673;28;20103;-47
2023/06/13 06:32:42;;;;;;;17.40;8.07;;;;;;;21.37;72.44;101418.00;5093750;28;20028;-46
2023/06/13 06:35:08;;;;;;;20.30;8.52;;;;;;;21.46;72.59;101405.66;5093587;28;20048;-48
2023/06/13 06:37:33;;;;;;;16.70;7.97;;;;;;;21.61;73.29;101410.63;5091101;28;20036;-44
2023/06/13 06:40:00;;;;;;;13.90;7.97;;;;;;;21.72;71.11;101409.75;5092595;28;20033;-47
2023/06/13 06:42:26;;;;;;;12.13;7.60;;;;;;;21.80;72.10;101416.75;5091792;28;20080;-46
2023/06/13 06:44:51;;;;;;;20.40;8.73;;;;;;;21.97;70.56;101411.34;5093586;28;20512;-47
2023/06/13 06:47:17;;;;;;;18.13;8.05;;;;;;;22.02;70.18;101409.53;5092508;28;20614;-46
2023/06/13 06:49:42;;;;;;;13.45;7.72;;;;;;;22.07;70.44;101406.91;5092603;28;20366;-44
2023/06/13 06:52:07;;;;;;;15.02;8.05;;;;;;;22.23;69.99;101404.47;5073405;28;20048;-46
2023/06/13 06:54:33;;;;;;;22.02;7.95;;;;;;;22.40;69.40;101410.81;5073398;28;20351;-46
2023/06/13 06:56:59;;;;;;;23.75;8.02;;;;;;;22.73;68.06;101403.69;5073336;28;20638;-45
2023/06/13 06:59:24;;;;;;;17.38;8.43;;;;;;;23.12;66.98;101406.53;5071685;28;20084;-45
2023/06/13 07:01:50;;;;;;;18.90;8.57;;;;;;;23.73;64.01;101403.81;5073008;28;20186;-46
2023/06/13 07:04:16;;;;;;;15.68;8.18;;;;;;;24.35;61.97;101402.53;5073063;28;20051;-46
2023/06/13 07:06:41;;;;;;;27.38;8.07;;;;;;;25.36;57.85;101410.00;5073002;28;20478;-45
2023/06/13 07:09:07;;;;;;;15.00;7.60;;;;;;;26.28;54.07;101413.91;5073592;28;20387;-46
2023/06/13 07:11:32;;;;;;;19.05;8.15;;;;;;;27.15;51.10;101408.41;5071466;28;20111;-47
2023/06/13 07:13:57;;;;;;;27.30;8.27;;;;;;;27.71;47.91;101406.59;5071645;28;20033;-46
2023/06/13 07:16:23;;;;;;;15.93;7.57;;;;;;;28.41;46.41;101407.31;5072297;28;20056;-46
2023/06/13 07:18:50;;;;;;;14.77;7.47;;;;;;;28.89;44.81;101412.19;5072605;28;20466;-45
2023/06/13 07:21:15;;;;;;;;;;;;;;;29.32;42.49;101409.56;5073126;28;20024;-44
2023/06/13 07:23:40;;;;;;;11.10;7.07;;;;;;;29.61;41.40;101414.22;5073140;28;19912;-43
2023/06/13 07:26:06;;;;;;;18.63;7.15;;;;;;;29.85;42.65;101415.03;5072669;28;20077;-49
2023/06/13 07:28:31;;;;;;;12.20;7.03;;;;;;;30.93;40.14;101421.72;5070531;28;20434;-47
2023/06/13 07:30:58;;;;;;;14.75;6.60;;;;;;;31.26;37.93;101414.97;5072467;28;20021;-44
2023/06/13 07:33:24;;;;;;;;;;;;;;;31.78;36.89;101413.94;5073051;28;20390;-46
2023/06/13 07:35:50;;;;;;;11.60;6.53;;;;;;;31.91;36.17;101424.22;5070520;28;19913;-47
2023/06/13 07:38:15;;;;;;;15.60;7.13;;;;;;;32.00;36.27;101416.03;5071115;28;20107;-48
2023/06/13 07:40:41;;;;;;;20.53;6.97;;;;;;;32.38;35.30;101416.50;5072149;28;20017;-44
2023/06/13 07:43:06;;;;;;;11.33;5.63;;;;;;;32.40;35.04;101419.78;5071882;28;20016;-47
2023/06/13 07:45:31;;;;;;;14.17;7.00;;;;;;;32.69;34.59;101416.59;5072021;28;20521;-47
2023/06/13 07:47:57;;;;;;;15.07;6.57;;;;;;;32.49;32.77;101414.31;5070623;28;20024;-44
2023/06/13 07:50:23;;;;;;;12.80;6.60;;;;;;;32.67;32.73;101415.25;5070051;28;20028;-48
2023/06/13 07:52:48;;;;;;;12.47;5.83;;;;;;;32.61;32.52;101413.75;5071755;28;20032;-43
2023/06/13 07:55:14;;;;;;;13.57;6.33;;;;;;;32.64;31.62;101416.72;5072037;28;20028;-43
2023/06/13 07:57:40;;;;;;;12.13;6.03;;;;;;;32.29;32.29;101410.03;5071885;28;20103;-46
2023/06/13 08:00:16;;;;;;;14.37;6.03;;;;;;;32.24;32.61;101404.59;5071808;28;20253;-47
2023/06/13 08:02:43;;;;;;;12.35;6.10;;;;;;;32.76;30.21;101413.38;5071861;28;20028;-44
2023/06/13 08:05:08;;;;;;;14.30;5.60;;;;;;;32.69;30.49;101412.97;5071880;28;20037;-47
2023/06/13 08:07:34;;;;;;;12.63;6.03;;;;;;;32.52;30.48;101417.31;5071240;28;20098;-47
2023/06/13 08:09:59;;;;;;;15.13;6.00;;;;;;;32.32;29.82;101406.63;5071676;28;20020;-49
2023/06/13 08:12:25;;;;;;;12.33;5.90;;;;;;;32.60;30.47;101412.94;5071205;28;20154;-47
2023/06/13 08:14:50;;;;;;;9.60;5.73;;;;;;;32.63;29.97;101405.91;5070269;28;20031;-47
2023/06/13 08:17:15;;;;;;;15.57;6.30;;;;;;;32.66;30.18;101402.47;5071822;28;20230;-45
2023/06/13 08:19:41;;;;;;;17.23;6.17;;;;;;;32.96;29.73;101411.97;5071979;28;20457;-44
2023/06/13 08:22:06;;;;;;;18.03;6.27;;;;;;;32.73;30.13;101422.34;5071759;28;20446;-44
2023/06/13 08:24:32;;;;;;;14.57;5.77;;;;;;;32.75;29.75;101408.91;5071426;28;20082;-47
2023/06/13 08:26:57;;;;;;;12.80;5.47;;;;;;;33.06;29.70;101408.13;5071331;28;20075;-49
2023/06/13 08:29:25;;;;;;;10.33;6.07;;;;;;;32.70;28.35;101409.88;5071344;28;20024;-47
2023/06/13 08:31:51;;;;;;;26.08;6.00;;;;;;;32.34;28.92;101409.94;5071221;28;20111;-51
2023/06/13 08:34:16;;;;;;;10.02;6.10;;;;;;;32.20;29.25;101415.53;5070908;28;20021;-45
2023/06/13 08:36:42;;;;;;;11.03;6.27;;;;;;;32.75;27.91;101408.91;5069712;28;20474;-48
2023/06/13 08:39:07;;;;;;;17.50;6.63;;;;;;;32.83;27.52;101405.34;5070735;28;20035;-46
2023/06/13 08:41:33;;;;;;;9.40;6.30;;;;;;;32.94;27.79;101412.31;5070777;28;20024;-48
2023/06/13 08:43:59;;;;;;;14.17;6.03;;;;;;;32.41;27.28;101410.28;5069726;28;20451;-47
2023/06/13 08:46:25;;;;;;;12.10;6.33;;;;;;;32.20;28.18;101403.56;5069623;28;20048;-47
2023/06/13 08:48:50;;;;;;;11.53;6.53;;;;;;;32.49;26.99;101406.78;5069349;28;20027;-46
2023/06/13 08:51:16;;;;;;;16.70;6.77;;;;;;;32.28;28.31;101395.31;5070789;28;20028;-46
2023/06/13 08:53:51;;;;;;;13.45;6.45;;;;;;;32.23;28.98;101387.06;5069273;28;20028;-47
2023/06/13 08:56:21;;;;;;;11.05;6.22;;;;;;;32.63;29.65;101383.59;5071073;28;20489;-46
2023/06/13 08:58:48;;;;;;;17.15;6.70;;;;;;;32.93;28.18;101388.34;5070499;28;20112;-46
2023/06/13 09:01:13;;;;;;;21.27;6.68;;;;;;;33.03;28.10;101381.72;5070980;28;20068;-45
2023/06/13 09:03:40;;;;;;;17.53;6.93;;;;;;;33.13;28.00;101377.81;5070533;28;20495;-47
2023/06/13 09:06:05;;;;;;;15.98;6.28;;;;;;;33.05;27.74;101379.44;5070485;28;20029;-44
2023/06/13 09:08:31;;;;;;;13.87;6.30;;;;;;;32.49;27.50;101372.50;5069255;28;20441;-46
2023/06/13 09:11:00;;;;;;;12.77;6.68;;;;;;;32.11;28.45;101372.88;5069290;28;20035;-47
2023/06/13 09:13:25;;;;;;;13.93;6.70;;;;;;;31.85;28.46;101378.19;5070999;28;20033;-48
2023/06/13 09:15:51;;;;;;;13.53;6.67;;;;;;;31.61;27.38;101376.47;5069633;28;20039;-49
2023/06/13 09:18:18;;;;;;;14.05;6.80;;;;;;;31.67;27.10;101374.38;5069101;28;20012;-47
2023/06/13 09:20:44;;;;;;;13.90;6.53;;;;;;;31.57;26.73;101374.59;5069171;28;20081;-46
2023/06/13 09:23:13;;;;;;;9.97;6.00;;;;;;;31.34;25.96;101373.69;5070847;28;20099;-47
2023/06/13 09:25:39;;;;;;;17.17;7.05;;;;;;;30.96;26.61;101380.25;5070313;28;20028;-49
2023/06/13 09:28:27;;;;;;;14.30;6.65;;;;;;;30.91;27.06;101373.94;5069190;28;20028;-47
2023/06/13 09:30:52;;;;;;;16.60;6.43;;;;;;;31.34;27.50;101376.47;5070672;28;20377;-47
2023/06/13 09:33:19;;;;;;;18.17;7.30;;;;;;;31.60;26.97;101369.25;5070532;28;20021;-45
2023/06/13 09:35:45;;;;;;;15.07;7.05;;;;;;;31.59;27.02;101378.72;5069165;28;20051;-47
2023/06/13 09:38:12;;;;;;;15.07;6.47;;;;;;;31.43;26.54;101369.88;5070539;28;20025;-44
2023/06/13 09:40:37;;;;;;;15.95;6.75;;;;;;;31.60;26.45;101380.41;5070681;28;20031;-46
2023/06/13 09:43:03;;;;;;;16.33;6.20;;;;;;;31.85;25.95;101376.22;5070647;28;20470;-46
2023/06/13 09:45:29;;;;;;;14.73;6.32;;;;;;;31.78;24.86;101363.84;5070524;28;20502;-46
2023/06/13 09:47:54;;;;;;;17.33;7.22;;;;;;;31.84;25.80;101362.63;5070590;28;20448;-46
2023/06/13 09:50:21;;;;;;;22.23;7.17;;;;;;;31.80;24.14;101347.66;5070226;28;20085;-44
2023/06/13 09:52:47;;;;;;;17.67;6.60;;;;;;;31.59;24.46;101361.22;5070132;28;20036;-45
2023/06/13 09:55:13;;;;;;;12.77;6.77;;;;;;;31.37;25.07;101361.94;5070225;28;20045;-47
2023/06/13 09:57:38;;;;;;;13.60;7.07;;;;;;;31.52;24.70;101349.69;5070699;28;20031;-46
2023/06/13 10:00:08;;;;;;;10.50;7.18;;;;;;;31.57;25.07;101352.34;5068527;28;20067;-48
2023/06/13 10:02:34;;;;;;;15.77;7.25;;;;;;;31.44;24.91;101359.59;5072386;28;20438;-49
2023/06/13 10:05:00;;;;;;;26.60;7.90;;;;;;;31.39;24.81;101359.72;5055875;28;20025;-45
2023/06/13 10:07:26;;;;;;;16.73;7.10;;;;;;;31.30;24.95;101364.31;5074339;28;20113;-46
2023/06/13 10:09:51;;;;;;;17.02;6.85;;;;;;;31.86;24.64;101349.19;5072563;28;20474;-46
2023/06/13 10:12:21;;;;;;;15.35;7.20;;;;;;;32.01;23.95;101345.25;5072627;28;20043;-45
2023/06/13 10:15:00;;;;;;;20.08;7.53;;;;;;;32.04;24.66;101356.59;5072519;28;20086;-49
2023/06/13 10:17:29;;;;;;;14.48;7.15;;;;;;;32.21;25.11;101343.97;5072289;28;20024;-45
2023/06/13 10:20:00;;;;;;;19.73;7.07;;;;;;;32.44;24.53;101359.53;5072325;28;20086;-46
2023/06/13 10:22:26;;;;;;;13.82;7.18;;;;;;;32.35;23.99;101341.91;5073927;28;20103;-47
2023/06/13 10:24:54;;;;;;;14.53;6.80;;;;;;;32.30;24.12;101342.88;5072550;28;20048;-49
2023/06/13 10:27:20;;;;;;;12.27;6.97;;;;;;;32.40;23.95;101347.38;5073806;28;20026;-46
2023/06/13 10:29:55;;;;;;;13.02;7.13;;;;;;;32.33;24.38;101349.75;5073331;28;20020;-44
2023/06/13 10:32:47;;;;;;;24.10;7.40;;;;;;;31.94;23.69;101334.59;5073617;28;20440;-44
2023/06/13 10:35:45;;;;;;;18.35;7.32;;;;;;;31.70;23.89;101351.50;5072237;28;20032;-46
2023/06/13 10:38:45;;;;;;;28.42;7.32;;;;;;;32.09;24.98;101336.97;5034323;28;20033;-46
2023/06/13 10:41:49;;;;;;;11.23;7.35;;;;;;;32.35;24.32;101336.34;5073641;28;20024;-44
2023/06/13 10:44:37;;;;;;;12.27;6.57;;;;;;;32.47;24.47;101331.06;5071991;28;20024;-47
2023/06/13 10:47:02;;;;;;;14.05;7.10;;;;;;;32.78;24.44;101327.44;5073136;28;20107;-46
2023/06/13 10:49:42;;;;;;;13.17;6.80;;;;;;;32.51;23.21;101331.22;5073120;28;20084;-45
2023/06/13 10:52:12;;;;;;;12.45;6.90;;;;;;;32.41;24.53;101323.91;5071243;28;20047;-46
2023/06/13 10:54:39;;;;;;;17.10;7.03;;;;;;;32.68;24.18;101338.88;5071271;28;20021;-44
2023/06/13 10:57:05;;;;;;;;;;;;;;;32.40;24.73;101325.06;5072668;28;20487;-45
2023/06/13 10:59:39;;;;;;;11.85;7.10;;;;;;;32.33;24.24;101330.25;5073633;28;20274;-46
2023/06/13 11:02:09;;;;;;;13.98;7.45;;;;;;;32.08;24.60;101318.63;5071784;28;20398;-46
2023/06/13 11:04:34;;;;;;;15.57;6.68;;;;;;;32.17;24.36;101318.69;5071655;28;20021;-47
2023/06/13 11:07:22;;;;;;;20.30;6.83;;;;;;;32.26;24.11;101341.88;5072642;28;20086;-47
2023/06/13 11:10:11;;;;;;;15.40;7.18;;;;;;;32.47;23.72;101324.63;5072865;28;20036;-46
2023/06/13 11:12:38;;;;;;;18.33;7.43;;;;;;;32.70;23.82;101323.50;5071312;28;20124;-47
2023/06/13 11:15:03;;;;;;;;;;;;;;;33.21;23.52;101327.66;5073290;28;20587;-45
2023/06/13 11:17:29;;;;;;;12.67;6.60;;;;;;;32.73;23.31;101322.84;5071203;28;19920;-45
2023/06/13 11:19:57;;;;;;;10.80;6.87;;;;;;;32.79;23.65;101318.75;5071620;28;20241;-46